Aeroporto :
LOGIN :

Iscrizione | Disclaimer

   EN    FR    IT 

 










Sommario :    VFR   VFR Marginale   IFR   IFR Intensivo   IFR Molto Intensivo
Visibilità : 
Base nubi : 
>= 8 km
>= 3000ft
5 / 8 km
1000 / 3000 ft
1500m / 5 km
500 / 1000 ft
800 / 1500m
200 / 500 ft
< 800m
< 200 ft
Simboli :   Temporali  Nebbia  Neve Forte  Precipitazioni Forti  Vento > 20 kt
SIGMETs :   Varie  Temporali  Ghiacco  Turbolenza  Onda orograficha  Ceneri Vulcaniche






- Altitudine del aeroporto : 236 ft
- Codice IATA : MMX


ESMS - Malmö Sturup

ULTIMO METAR :
  • 171150Z 24025G37KT 9999 FEW044 BKN061 07/02 Q1003

METARs OBSOLETI :
  • 171120Z 24024G37KT 9999 FEW032 SCT043 07/02 Q1003
  • 171050Z 23024KT 9999 BKN033 07/02 Q1003
  • 171020Z 24024KT 9999 FEW025 BKN036 07/02 Q1002
  • 170950Z 24022G32KT 9999 FEW025 SCT034 BKN055 07/02 Q1002
  • 170920Z 24022KT 9999 SCT035 BKN053 07/02 Q1002

TAF TAF ESMS
Valido dal 17 a 12 ore il 18 a 12 ore UTC


171102Z 1712/1812 24018KT 9999 BKN025
TEMPO 1712/1718 24025G35KT SHRA SCT020CB
TEMPO 1718/1808 24015G25KT SHRA BKN012 SCT020CB
BECMG 1810/1812 24020G32KT 4000 SHRA BKN010 BKN020CB



MetMap, La meteo Aeronautica in un colpo d'occhio ! - Copyright ORBIFLY Dicembre 2007 - Disclaimer

ORBIFLY MET'MAP TEAM :

Programmazione e sviluppo : Alexandra Zaïnal
Concezione : Baudouin d'Aumeries
Aiuto per la programmazione : Marc-Olivier Méhu
Supporto tecnico e logistico : Manuel Goepfert
Aiuto per la traduzione : Arnaldo La Scala

Contatto : metmap@orbifly.com




FONTI E CREDITI :

   NOAA